createdAt,value
2022-09-20T00:01:16.569Z,11.70
2022-09-20T00:03:45.388Z,11.70
2022-09-20T00:06:13.956Z,11.70
2022-09-20T00:08:41.394Z,11.70
2022-09-20T00:11:10.254Z,11.70
2022-09-20T00:13:38.274Z,11.60
2022-09-20T00:16:06.717Z,11.60
2022-09-20T00:18:33.784Z,11.70
2022-09-20T00:21:01.091Z,11.70
2022-09-20T00:23:28.052Z,11.60
2022-09-20T00:25:59.340Z,11.70
2022-09-20T00:28:26.427Z,11.70
2022-09-20T00:30:54.168Z,11.70
2022-09-20T00:33:21.872Z,11.60
2022-09-20T00:35:48.999Z,11.70
2022-09-20T00:38:16.277Z,11.70
2022-09-20T00:40:44.129Z,11.70
2022-09-20T00:43:17.908Z,11.70
2022-09-20T00:45:46.625Z,11.60
2022-09-20T00:48:15.876Z,11.70
2022-09-20T00:50:47.604Z,11.60
2022-09-20T00:53:18.634Z,11.60
2022-09-20T00:55:47.954Z,11.70
2022-09-20T00:58:15.124Z,11.60
2022-09-20T01:00:43.469Z,11.60
2022-09-20T01:03:11.418Z,11.60
2022-09-20T01:05:39.804Z,11.60
2022-09-20T01:08:07.158Z,11.60
2022-09-20T01:10:34.113Z,11.60
2022-09-20T01:13:01.135Z,11.60
2022-09-20T01:15:28.999Z,11.60
2022-09-20T01:17:57.112Z,11.50
2022-09-20T01:20:26.307Z,11.50
2022-09-20T01:23:12.034Z,11.50
2022-09-20T01:25:53.031Z,11.50
2022-09-20T01:28:20.488Z,11.50
2022-09-20T01:30:49.679Z,11.50
2022-09-20T01:33:33.530Z,11.50
2022-09-20T01:36:03.533Z,11.50
2022-09-20T01:38:45.988Z,11.50
2022-09-20T01:41:22.202Z,11.50
2022-09-20T01:43:52.234Z,11.50
2022-09-20T01:46:33.382Z,11.50
2022-09-20T01:49:09.473Z,11.50
2022-09-20T01:51:42.363Z,11.50
2022-09-20T01:54:12.360Z,11.50
2022-09-20T01:56:39.257Z,11.40
2022-09-20T01:59:25.181Z,11.40
2022-09-20T02:02:11.013Z,11.40
2022-09-20T02:04:42.752Z,11.50
2022-09-20T02:07:39.154Z,11.40
2022-09-20T02:10:08.864Z,11.40
2022-09-20T02:12:35.765Z,11.50
2022-09-20T02:15:14.989Z,11.40
2022-09-20T02:17:57.909Z,11.40
2022-09-20T02:20:24.897Z,11.40
2022-09-20T02:22:57.846Z,11.40
2022-09-20T02:25:43.576Z,11.40
2022-09-20T02:28:24.408Z,11.40
2022-09-20T02:30:58.876Z,11.40
2022-09-20T02:33:36.136Z,11.40
2022-09-20T02:36:21.906Z,11.40
2022-09-20T02:39:11.181Z,11.50
2022-09-20T02:41:50.583Z,11.40
2022-09-20T02:44:26.662Z,11.50
2022-09-20T02:46:59.717Z,11.40
2022-09-20T02:49:45.408Z,11.40
2022-09-20T02:52:20.956Z,11.40
2022-09-20T02:54:50.946Z,11.50
2022-09-20T02:57:36.477Z,11.40
2022-09-20T03:00:03.549Z,11.40
2022-09-20T03:02:30.636Z,11.40
2022-09-20T03:05:04.940Z,11.40
2022-09-20T03:07:31.888Z,11.40
2022-09-20T03:10:01.852Z,11.40
2022-09-20T03:12:40.930Z,11.40
2022-09-20T03:15:10.290Z,11.40
2022-09-20T03:17:43.082Z,11.50
2022-09-20T03:20:29.025Z,11.40
2022-09-20T03:23:01.918Z,11.40
2022-09-20T03:25:38.079Z,11.40
2022-09-20T03:28:17.957Z,11.40
2022-09-20T03:30:54.024Z,11.50
2022-09-20T03:33:26.133Z,11.50
2022-09-20T03:35:53.820Z,11.50
2022-09-20T03:38:41.108Z,11.50
2022-09-20T03:41:31.207Z,11.50
2022-09-20T03:43:58.174Z,11.50
2022-09-20T03:46:26.637Z,11.40
2022-09-20T03:49:04.533Z,11.40
2022-09-20T03:51:34.662Z,11.40
2022-09-20T03:54:20.413Z,11.40
2022-09-20T03:57:06.184Z,11.40
2022-09-20T03:59:36.642Z,11.40
2022-09-20T04:02:22.704Z,11.30
2022-09-20T04:04:52.745Z,11.30
2022-09-20T04:07:26.819Z,11.30
2022-09-20T04:10:13.925Z,11.30
2022-09-20T04:12:50.280Z,11.30
2022-09-20T04:15:25.723Z,11.30
2022-09-20T04:18:03.731Z,11.30
2022-09-20T04:20:39.856Z,11.30
2022-09-20T04:23:18.136Z,11.30
2022-09-20T04:25:48.042Z,11.30
2022-09-20T04:28:23.896Z,11.30
2022-09-20T04:30:55.541Z,11.20
2022-09-20T04:33:26.451Z,11.20
2022-09-20T04:36:30.813Z,11.20
2022-09-20T04:39:02.307Z,11.20
2022-09-20T04:41:39.474Z,11.30
2022-09-20T04:44:09.601Z,11.30
2022-09-20T04:46:56.242Z,11.30
2022-09-20T04:49:33.823Z,11.30
2022-09-20T04:52:15.862Z,11.30
2022-09-20T04:54:44.323Z,11.10
2022-09-20T04:57:30.314Z,11.30
2022-09-20T05:00:03.430Z,11.30
2022-09-20T05:02:45.716Z,11.30
2022-09-20T05:05:25.986Z,11.30
2022-09-20T05:08:02.094Z,11.30
2022-09-20T05:10:47.731Z,11.30
2022-09-20T05:13:33.549Z,11.30
2022-09-20T05:16:19.374Z,11.30
2022-09-20T05:19:07.621Z,11.30
2022-09-20T05:21:57.045Z,11.30
2022-09-20T05:24:27.645Z,11.30
2022-09-20T05:26:54.524Z,11.30
2022-09-20T05:29:54.043Z,11.30
2022-09-20T05:32:39.962Z,11.30
2022-09-20T05:35:18.000Z,11.30
2022-09-20T05:37:58.146Z,11.40
2022-09-20T05:40:43.481Z,11.40
2022-09-20T05:43:17.659Z,11.40
2022-09-20T05:45:44.640Z,11.30
2022-09-20T05:48:14.702Z,11.40
2022-09-20T05:50:50.568Z,11.40
2022-09-20T05:53:23.493Z,11.40
2022-09-20T05:55:50.576Z,11.50
2022-09-20T05:58:26.589Z,11.40
2022-09-20T06:00:56.223Z,11.50
2022-09-20T06:03:26.262Z,11.50
2022-09-20T06:05:59.379Z,11.50
2022-09-20T06:08:26.507Z,11.50
2022-09-20T06:11:02.661Z,11.50
2022-09-20T06:13:36.822Z,11.60
2022-09-20T06:16:05.133Z,11.60
2022-09-20T06:18:32.072Z,11.60
2022-09-20T06:21:12.823Z,11.60
2022-09-20T06:23:39.833Z,11.60
2022-09-20T06:26:26.793Z,11.60
2022-09-20T06:28:58.337Z,11.60
2022-09-20T06:31:26.091Z,11.60
2022-09-20T06:33:53.010Z,11.60
2022-09-20T06:36:47.286Z,11.60
2022-09-20T06:39:32.983Z,11.60
2022-09-20T06:42:00.726Z,11.60
2022-09-20T06:44:28.546Z,11.60
2022-09-20T06:46:55.844Z,11.60
2022-09-20T06:49:24.239Z,11.70
2022-09-20T06:51:51.231Z,11.70
2022-09-20T06:54:19.401Z,11.70
2022-09-20T06:56:47.414Z,11.70
2022-09-20T06:59:15.352Z,11.80
2022-09-20T07:01:42.816Z,11.80
2022-09-20T07:04:09.961Z,11.80
2022-09-20T07:06:37.224Z,11.80
2022-09-20T07:09:07.691Z,11.80
2022-09-20T07:11:35.109Z,11.90
2022-09-20T07:14:02.170Z,11.90
2022-09-20T07:16:29.436Z,11.90
2022-09-20T07:18:56.944Z,12.00
2022-09-20T07:21:24.438Z,12.00
2022-09-20T07:23:51.548Z,12.00
2022-09-20T07:26:20.822Z,12.10
2022-09-20T07:28:48.163Z,12.10
2022-09-20T07:31:15.431Z,12.10
2022-09-20T07:33:42.525Z,12.10
2022-09-20T07:36:10.137Z,12.20
2022-09-20T07:38:37.022Z,12.20
2022-09-20T07:41:04.046Z,12.20
2022-09-20T07:43:31.502Z,12.20
2022-09-20T07:46:00.027Z,12.30
2022-09-20T07:48:29.334Z,12.30
2022-09-20T07:50:57.490Z,12.40
2022-09-20T07:53:24.533Z,12.40
2022-09-20T07:55:58.026Z,12.40
2022-09-20T07:58:25.024Z,12.40
2022-09-20T08:00:55.830Z,12.60
2022-09-20T08:03:23.287Z,12.60
2022-09-20T08:05:52.968Z,12.70
2022-09-20T08:08:20.219Z,12.80
2022-09-20T08:10:47.590Z,12.90
2022-09-20T08:16:06.121Z,13.00
2022-09-20T08:18:34.471Z,13.10
2022-09-20T08:21:06.428Z,13.20
2022-09-20T08:23:37.049Z,13.30
2022-09-20T08:26:04.551Z,13.40
2022-09-20T08:28:32.080Z,13.50
2022-09-20T08:31:09.636Z,13.50
2022-09-20T08:33:38.158Z,13.60
2022-09-20T08:36:06.053Z,13.70
2022-09-20T08:41:27.768Z,13.70
2022-09-20T08:43:57.000Z,13.70
2022-09-20T08:46:28.869Z,13.70
2022-09-20T08:48:57.765Z,13.70
2022-09-20T08:51:30.510Z,13.80
2022-09-20T08:53:58.303Z,13.90
2022-09-20T08:56:28.107Z,14.00
2022-09-20T08:58:59.843Z,14.00
2022-09-20T09:01:28.817Z,14.10
2022-09-20T09:04:15.981Z,14.20
2022-09-20T09:06:44.003Z,14.20
2022-09-20T09:09:23.249Z,14.30
2022-09-20T09:11:51.617Z,14.30
2022-09-20T09:14:55.362Z,14.30
2022-09-20T09:17:27.944Z,14.30
2022-09-20T09:19:59.756Z,14.40
2022-09-20T09:22:27.026Z,14.40
2022-09-20T09:25:19.290Z,14.40
2022-09-20T09:27:50.973Z,14.40
2022-09-20T09:30:26.484Z,14.40
2022-09-20T09:33:13.349Z,14.40
2022-09-20T09:35:40.604Z,14.40
2022-09-20T09:38:26.965Z,14.40
2022-09-20T09:40:55.837Z,14.40
2022-09-20T09:43:27.171Z,14.40
2022-09-20T09:45:55.420Z,14.30
2022-09-20T09:48:33.297Z,14.40
2022-09-20T09:51:10.004Z,14.40
2022-09-20T09:53:38.593Z,14.30
2022-09-20T09:56:27.164Z,14.40
2022-09-20T09:58:56.314Z,14.40
2022-09-20T10:01:41.823Z,14.40
2022-09-20T10:04:15.831Z,14.50
2022-09-20T10:06:54.990Z,14.50
2022-09-20T10:09:34.219Z,14.50
2022-09-20T10:12:04.080Z,14.50
2022-09-20T10:14:49.785Z,14.50
2022-09-20T10:17:22.882Z,14.50
2022-09-20T10:19:49.787Z,14.60
2022-09-20T10:22:37.231Z,14.70
2022-09-20T10:25:24.048Z,14.70
2022-09-20T10:28:03.354Z,14.80
2022-09-20T10:30:35.231Z,14.90
2022-09-20T10:33:20.004Z,15.00
2022-09-20T10:35:51.760Z,15.00
2022-09-20T10:38:31.583Z,15.10
2022-09-20T10:41:29.991Z,15.10
2022-09-20T10:44:06.027Z,15.10
2022-09-20T10:46:41.384Z,15.30
2022-09-20T10:49:26.878Z,15.40
2022-09-20T10:51:53.831Z,15.50
2022-09-20T10:54:21.308Z,15.50
2022-09-20T10:56:50.943Z,15.60
2022-09-20T10:59:27.979Z,15.70
2022-09-20T11:02:03.892Z,15.70
2022-09-20T11:04:39.422Z,15.90
2022-09-20T11:07:06.415Z,15.90
2022-09-20T11:09:38.490Z,15.90
2022-09-20T11:12:08.730Z,15.90
2022-09-20T11:14:39.437Z,16.00
2022-09-20T11:17:12.238Z,16.00
2022-09-20T11:20:07.688Z,16.00
2022-09-20T11:22:40.266Z,16.10
2022-09-20T11:25:21.515Z,16.30
2022-09-20T11:28:11.625Z,16.40
2022-09-20T11:30:45.044Z,16.50
2022-09-20T11:33:15.330Z,16.60
2022-09-20T11:35:51.029Z,16.70
2022-09-20T11:38:37.901Z,16.70
2022-09-20T11:41:05.231Z,16.90
2022-09-20T11:43:32.757Z,16.90
2022-09-20T11:46:05.935Z,17.00
2022-09-20T11:48:47.493Z,17.10
2022-09-20T11:51:29.529Z,17.10
2022-09-20T11:53:59.347Z,17.10
2022-09-20T11:56:28.703Z,17.20
2022-09-20T11:59:03.119Z,17.20
2022-09-20T12:01:35.826Z,17.20
2022-09-20T12:04:31.732Z,17.20
2022-09-20T12:07:09.670Z,17.10
2022-09-20T12:09:40.323Z,17.20
2022-09-20T12:12:15.310Z,17.30
2022-09-20T12:14:53.344Z,17.50
2022-09-20T12:17:39.720Z,17.80
2022-09-20T12:20:25.652Z,17.90
2022-09-20T12:22:53.464Z,18.10
2022-09-20T12:25:52.623Z,18.60
2022-09-20T12:28:33.246Z,18.60
2022-09-20T12:31:18.686Z,19.00
2022-09-20T12:34:04.692Z,19.30
2022-09-20T12:36:36.403Z,19.50
2022-09-20T12:39:21.242Z,19.60
2022-09-20T12:41:56.586Z,19.30
2022-09-20T12:44:30.496Z,19.20
2022-09-20T12:47:00.826Z,19.30
2022-09-20T12:50:00.516Z,19.10
2022-09-20T12:52:57.880Z,19.20
2022-09-20T12:55:33.047Z,18.90
2022-09-20T12:58:03.923Z,18.80
2022-09-20T13:00:34.640Z,19.00
2022-09-20T13:03:10.907Z,19.40
2022-09-20T13:05:40.523Z,19.70
2022-09-20T13:08:29.089Z,19.70
2022-09-20T13:11:18.599Z,19.50
2022-09-20T13:13:52.636Z,19.50
2022-09-20T13:16:23.895Z,19.30
2022-09-20T13:18:59.364Z,19.10
2022-09-20T13:21:27.440Z,19.00
2022-09-20T13:23:55.458Z,18.80
2022-09-20T13:26:25.929Z,18.70
2022-09-20T13:28:54.581Z,18.50
2022-09-20T13:31:21.622Z,18.40
2022-09-20T13:33:49.214Z,18.30
2022-09-20T13:36:20.219Z,18.30
2022-09-20T13:38:49.760Z,18.30
2022-09-20T13:41:17.172Z,18.30
2022-09-20T13:43:45.937Z,18.30
2022-09-20T13:46:13.968Z,18.40
2022-09-20T13:48:40.994Z,18.50
2022-09-20T13:51:23.498Z,18.40
2022-09-20T13:53:57.110Z,18.40
2022-09-20T13:56:27.081Z,18.40
2022-09-20T13:58:55.969Z,18.30
2022-09-20T14:01:30.989Z,18.20
2022-09-20T14:04:08.503Z,18.30
2022-09-20T14:06:36.656Z,18.30
2022-09-20T14:09:10.812Z,18.30
2022-09-20T14:11:39.243Z,18.30
2022-09-20T14:14:08.114Z,18.20
2022-09-20T14:16:37.954Z,18.10
2022-09-20T14:19:05.864Z,18.00
2022-09-20T14:21:34.760Z,18.00
2022-09-20T14:24:05.864Z,18.00
2022-09-20T14:26:34.864Z,18.00
2022-09-20T14:29:20.710Z,17.80
2022-09-20T14:31:48.160Z,17.80
2022-09-20T14:34:15.153Z,17.80
2022-09-20T14:36:42.955Z,17.80
2022-09-20T14:39:14.448Z,17.70
2022-09-20T14:41:42.178Z,17.70
2022-09-20T14:44:23.677Z,17.60
2022-09-20T14:46:50.815Z,17.70
2022-09-20T14:49:20.870Z,17.60
2022-09-20T14:51:48.605Z,17.60
2022-09-20T14:54:34.133Z,17.60
2022-09-20T14:57:01.725Z,17.70
2022-09-20T14:59:35.528Z,17.60
2022-09-20T15:02:11.477Z,17.70
2022-09-20T15:04:40.198Z,17.80
2022-09-20T15:07:08.713Z,17.70
2022-09-20T15:09:35.978Z,17.70
2022-09-20T15:12:04.173Z,17.70
2022-09-20T15:14:36.516Z,17.70
2022-09-20T15:17:05.062Z,17.70
2022-09-20T15:19:32.095Z,17.70
2022-09-20T15:21:59.621Z,17.80
2022-09-20T15:24:26.587Z,17.80
2022-09-20T15:26:55.216Z,17.90
2022-09-20T15:29:22.100Z,17.90
2022-09-20T15:31:49.533Z,17.80
2022-09-20T15:34:16.810Z,17.80
2022-09-20T15:36:43.847Z,17.90
2022-09-20T15:39:10.996Z,17.90
2022-09-20T15:41:38.298Z,17.90
2022-09-20T15:44:06.621Z,17.90
2022-09-20T15:46:34.395Z,18.00
2022-09-20T15:49:02.852Z,18.00
2022-09-20T15:51:30.610Z,18.10
2022-09-20T15:54:02.429Z,18.20
2022-09-20T15:56:30.608Z,18.20
2022-09-20T15:59:01.437Z,18.30
2022-09-20T16:01:29.721Z,18.30
2022-09-20T16:03:56.880Z,18.30
2022-09-20T16:06:24.372Z,18.20
2022-09-20T16:08:51.941Z,18.00
2022-09-20T16:11:22.932Z,18.00
2022-09-20T16:13:54.259Z,17.90
2022-09-20T16:16:21.918Z,17.80
2022-09-20T16:19:07.654Z,17.70
2022-09-20T16:21:35.389Z,17.60
2022-09-20T16:24:02.391Z,17.50
2022-09-20T16:26:31.687Z,17.40
2022-09-20T16:28:58.873Z,17.30
2022-09-20T16:31:28.938Z,17.10
2022-09-20T16:33:56.126Z,17.00
2022-09-20T16:36:27.433Z,16.90
2022-09-20T16:38:59.899Z,16.80
2022-09-20T16:41:28.158Z,16.80
2022-09-20T16:43:57.675Z,16.70
2022-09-20T16:46:30.124Z,16.70
2022-09-20T16:49:00.409Z,16.60
2022-09-20T16:51:33.422Z,16.60
2022-09-20T16:54:11.741Z,16.60
2022-09-20T16:56:39.910Z,16.50
2022-09-20T16:59:07.659Z,16.50
2022-09-20T17:01:36.845Z,16.50
2022-09-20T17:04:07.359Z,16.40
2022-09-20T17:06:35.354Z,16.40
2022-09-20T17:09:02.520Z,16.30
2022-09-20T17:11:37.066Z,16.30
2022-09-20T17:14:04.739Z,16.30
2022-09-20T17:16:35.744Z,16.20
2022-09-20T17:19:09.306Z,16.20
2022-09-20T17:21:37.146Z,16.10
2022-09-20T17:24:06.008Z,16.00
2022-09-20T17:26:38.193Z,16.00
2022-09-20T17:29:05.886Z,16.00
2022-09-20T17:31:36.439Z,15.90
2022-09-20T17:34:06.775Z,15.90
2022-09-20T17:36:36.678Z,15.80
2022-09-20T17:39:04.681Z,15.80
2022-09-20T17:41:32.992Z,15.80
2022-09-20T17:44:00.765Z,15.80
2022-09-20T17:46:30.551Z,15.70
2022-09-20T17:49:00.683Z,15.70
2022-09-20T17:51:32.592Z,15.70
2022-09-20T17:53:59.893Z,15.60
2022-09-20T17:56:31.313Z,15.60
2022-09-20T17:58:59.428Z,15.60
2022-09-20T18:01:27.542Z,15.50
2022-09-20T18:03:58.758Z,15.50
2022-09-20T18:06:27.220Z,15.50
2022-09-20T18:08:55.118Z,15.50
2022-09-20T18:11:23.216Z,15.50
2022-09-20T18:13:50.163Z,15.50
2022-09-20T18:16:18.009Z,15.50
2022-09-20T18:18:46.532Z,15.50
2022-09-20T18:21:14.862Z,15.50
2022-09-20T18:23:42.112Z,15.40
2022-09-20T18:26:22.276Z,15.40
2022-09-20T18:28:55.505Z,15.40
2022-09-20T18:31:26.492Z,15.40
2022-09-20T18:33:54.463Z,15.40
2022-09-20T18:36:21.517Z,15.30
2022-09-20T18:38:49.712Z,15.30
2022-09-20T18:41:16.692Z,15.30
2022-09-20T18:43:46.469Z,15.30
2022-09-20T18:46:14.823Z,15.30
2022-09-20T18:48:41.913Z,15.30
2022-09-20T18:51:09.310Z,15.30
2022-09-20T18:53:37.284Z,15.30
2022-09-20T18:56:08.522Z,15.30
2022-09-20T18:58:36.281Z,15.20
2022-09-20T19:01:32.952Z,15.20
2022-09-20T19:04:09.416Z,15.20
2022-09-20T19:06:55.403Z,15.20
2022-09-20T19:09:28.111Z,15.20
2022-09-20T19:11:58.945Z,15.10
2022-09-20T19:14:29.309Z,15.10
2022-09-20T19:17:01.146Z,15.10
2022-09-20T19:19:34.006Z,15.10
2022-09-20T19:22:20.098Z,15.10
2022-09-20T19:24:55.699Z,15.10
2022-09-20T19:27:23.606Z,15.10
2022-09-20T19:29:50.948Z,15.10
2022-09-20T19:32:21.306Z,15.10
2022-09-20T19:34:52.250Z,15.10
2022-09-20T19:37:26.120Z,15.10
2022-09-20T19:39:59.366Z,15.10
2022-09-20T19:42:36.294Z,15.00
2022-09-20T19:45:03.915Z,15.10
2022-09-20T19:47:34.492Z,15.10
2022-09-20T19:50:10.189Z,15.10
2022-09-20T19:52:39.491Z,15.00
2022-09-20T19:55:06.657Z,15.00
2022-09-20T19:57:42.235Z,15.00
2022-09-20T20:00:14.578Z,15.00
2022-09-20T20:02:44.890Z,15.00
2022-09-20T20:05:12.864Z,15.00
2022-09-20T20:07:58.356Z,14.90
2022-09-20T20:10:25.388Z,14.90
2022-09-20T20:12:55.269Z,14.90
2022-09-20T20:15:22.371Z,14.90
2022-09-20T20:18:03.614Z,14.90
2022-09-20T20:20:38.729Z,14.80
2022-09-20T20:23:24.760Z,14.80
2022-09-20T20:26:18.068Z,14.80
2022-09-20T20:28:45.156Z,14.80
2022-09-20T20:31:12.684Z,14.80
2022-09-20T20:33:39.786Z,14.80
2022-09-20T20:36:09.136Z,14.80
2022-09-20T20:38:39.488Z,14.70
2022-09-20T20:41:07.845Z,14.70
2022-09-20T20:43:36.470Z,14.70
2022-09-20T20:46:04.614Z,14.70
2022-09-20T20:48:31.761Z,14.70
2022-09-20T20:50:59.589Z,14.70
2022-09-20T20:53:29.460Z,14.70
2022-09-20T20:56:09.977Z,14.70
2022-09-20T20:58:37.969Z,14.70
2022-09-20T21:01:09.159Z,14.70
2022-09-20T21:03:36.389Z,14.70
2022-09-20T21:06:06.707Z,14.70
2022-09-20T21:08:38.065Z,14.60
2022-09-20T21:11:09.168Z,14.70
2022-09-20T21:13:36.161Z,14.60
2022-09-20T21:16:04.388Z,14.60
2022-09-20T21:18:31.938Z,14.60
2022-09-20T21:20:59.090Z,14.50
2022-09-20T21:23:26.065Z,14.50
2022-09-20T21:26:09.507Z,14.40
2022-09-20T21:28:37.483Z,14.50
2022-09-20T21:31:05.428Z,14.40
2022-09-20T21:33:33.466Z,14.40
2022-09-20T21:36:00.570Z,14.40
2022-09-20T21:38:33.920Z,14.30
2022-09-20T21:41:05.223Z,14.30
2022-09-20T21:43:32.512Z,14.20
2022-09-20T21:45:59.551Z,14.20
2022-09-20T21:48:27.218Z,14.10
2022-09-20T21:51:00.501Z,14.10
2022-09-20T21:53:27.584Z,14.00
2022-09-20T21:55:58.565Z,14.00
2022-09-20T21:58:25.792Z,13.90
2022-09-20T22:00:59.586Z,13.90
2022-09-20T22:03:30.053Z,13.80
2022-09-20T22:05:57.054Z,13.70
2022-09-20T22:08:23.976Z,13.70
2022-09-20T22:10:57.514Z,13.70
2022-09-20T22:13:24.784Z,13.60
2022-09-20T22:15:52.042Z,13.50
2022-09-20T22:18:19.013Z,13.50
2022-09-20T22:20:45.936Z,13.40
2022-09-20T22:23:13.024Z,13.40
2022-09-20T22:25:39.980Z,13.30
2022-09-20T22:28:07.023Z,13.30
2022-09-20T22:30:34.122Z,13.30
2022-09-20T22:33:01.407Z,13.30
2022-09-20T22:35:28.301Z,13.30
2022-09-20T22:37:56.093Z,13.30
2022-09-20T22:40:23.078Z,13.30
2022-09-20T22:42:50.040Z,13.30
2022-09-20T22:45:16.946Z,13.30
2022-09-20T22:47:44.076Z,13.30
2022-09-20T22:50:11.172Z,13.30
2022-09-20T22:52:38.155Z,13.30
2022-09-20T22:55:05.283Z,13.30
2022-09-20T22:57:34.925Z,13.30
2022-09-20T23:00:02.130Z,13.20
2022-09-20T23:02:29.282Z,13.20
2022-09-20T23:04:56.863Z,13.20
2022-09-20T23:07:24.292Z,13.20
2022-09-20T23:09:51.318Z,13.10
2022-09-20T23:12:18.901Z,13.10
2022-09-20T23:14:45.819Z,13.00
2022-09-20T23:17:12.791Z,13.00
2022-09-20T23:19:39.730Z,12.90
2022-09-20T23:22:06.772Z,12.90
2022-09-20T23:24:33.833Z,12.80
2022-09-20T23:27:00.848Z,12.80
2022-09-20T23:29:28.271Z,12.70
2022-09-20T23:31:55.336Z,12.70
2022-09-20T23:34:22.285Z,12.70
2022-09-20T23:36:49.298Z,12.60
2022-09-20T23:39:16.317Z,12.60
2022-09-20T23:41:48.350Z,12.50
2022-09-20T23:44:17.807Z,12.50
2022-09-20T23:46:44.742Z,12.40
2022-09-20T23:49:13.911Z,12.40
2022-09-20T23:51:40.832Z,12.30
2022-09-20T23:54:07.831Z,12.30
2022-09-20T23:56:35.971Z,12.30
2022-09-20T23:59:03.019Z,12.30
